createdAt,value
2023-04-04T00:00:38.947Z,102602.28
2023-04-04T00:03:06.724Z,102604.06
2023-04-04T00:05:35.464Z,102605.84
2023-04-04T00:08:04.273Z,102611.19
2023-04-04T00:10:31.449Z,102616.50
2023-04-04T00:12:59.019Z,102616.50
2023-04-04T00:15:25.934Z,102615.63
2023-04-04T00:17:53.006Z,102618.28
2023-04-04T00:20:19.837Z,102614.75
2023-04-04T00:22:46.698Z,102611.22
2023-04-04T00:25:13.509Z,102607.66
2023-04-04T00:27:40.385Z,102613.00
2023-04-04T00:30:08.346Z,102613.00
2023-04-04T00:32:36.807Z,102604.13
2023-04-04T00:35:03.953Z,102607.66
2023-04-04T00:37:30.946Z,102615.66
2023-04-04T00:39:57.839Z,102611.22
2023-04-04T00:42:24.719Z,102609.44
2023-04-04T00:44:52.661Z,102611.22
2023-04-04T00:47:24.572Z,102604.16
2023-04-04T00:49:52.512Z,102601.50
2023-04-04T00:52:19.474Z,102601.53
2023-04-04T00:54:46.664Z,102610.38
2023-04-04T00:57:13.868Z,102593.53
2023-04-04T00:59:41.928Z,102598.84
2023-04-04T01:02:09.428Z,102602.41
2023-04-04T01:04:37.123Z,102596.22
2023-04-04T01:07:04.619Z,102595.31
2023-04-04T01:09:31.984Z,102595.34
2023-04-04T01:11:59.422Z,102585.56
2023-04-04T01:14:28.235Z,102585.56
2023-04-04T01:16:55.920Z,102588.25
2023-04-04T01:19:37.264Z,102579.34
2023-04-04T01:22:12.589Z,102582.03
2023-04-04T01:24:45.162Z,102586.47
2023-04-04T01:27:13.350Z,102587.38
2023-04-04T01:29:45.894Z,102586.50
2023-04-04T01:32:36.878Z,102583.81
2023-04-04T01:35:31.445Z,102579.41
2023-04-04T01:38:06.973Z,102576.75
2023-04-04T01:40:37.797Z,102582.06
2023-04-04T01:43:07.849Z,102582.94
2023-04-04T01:45:36.439Z,102586.50
2023-04-04T01:48:11.086Z,102580.28
2023-04-04T01:50:38.483Z,102577.63
2023-04-04T01:53:05.891Z,102573.19
2023-04-04T01:55:32.747Z,102568.78
2023-04-04T01:58:00.444Z,102566.97
2023-04-04T02:00:27.690Z,102575.84
2023-04-04T02:02:54.682Z,102572.31
2023-04-04T02:05:21.522Z,102574.94
2023-04-04T02:07:52.425Z,102569.66
2023-04-04T02:10:29.979Z,102575.84
2023-04-04T02:12:58.110Z,102574.97
2023-04-04T02:15:25.306Z,102572.28
2023-04-04T02:17:52.573Z,102571.41
2023-04-04T02:20:20.231Z,102578.50
2023-04-04T02:22:55.241Z,102580.28
2023-04-04T02:25:24.524Z,102577.63
2023-04-04T02:27:51.496Z,102585.59
2023-04-04T02:30:19.511Z,102594.47
2023-04-04T02:32:47.747Z,102598.88
2023-04-04T02:35:18.124Z,102581.16
2023-04-04T02:37:48.333Z,102588.22
2023-04-04T02:40:39.711Z,102585.59
2023-04-04T02:43:06.839Z,102583.81
2023-04-04T02:45:34.329Z,102574.06
2023-04-04T02:48:10.694Z,102577.59
2023-04-04T02:50:48.021Z,102579.38
2023-04-04T02:53:16.010Z,102579.34
2023-04-04T02:55:44.113Z,102577.59
2023-04-04T02:58:11.264Z,102569.63
2023-04-04T03:00:38.496Z,102572.28
2023-04-04T03:03:05.769Z,102570.50
2023-04-04T03:05:37.304Z,102574.03
2023-04-04T03:08:04.920Z,102570.50
2023-04-04T03:10:32.220Z,102570.50
2023-04-04T03:12:59.451Z,102569.63
2023-04-04T03:15:28.425Z,102568.72
2023-04-04T03:17:55.647Z,102566.06
2023-04-04T03:20:26.409Z,102568.72
2023-04-04T03:22:53.322Z,102563.41
2023-04-04T03:25:20.745Z,102571.34
2023-04-04T03:27:47.615Z,102574.00
2023-04-04T03:30:21.025Z,102563.41
2023-04-04T03:32:48.665Z,102555.44
2023-04-04T03:35:16.293Z,102553.63
2023-04-04T03:37:43.951Z,102561.59
2023-04-04T03:40:11.477Z,102550.97
2023-04-04T03:42:38.943Z,102553.63
2023-04-04T03:45:10.766Z,102550.09
2023-04-04T03:47:39.032Z,102550.94
2023-04-04T03:50:06.754Z,102545.63
2023-04-04T03:52:40.009Z,102549.16
2023-04-04T03:55:07.785Z,102554.47
2023-04-04T03:57:34.788Z,102552.69
2023-04-04T04:00:04.742Z,102553.56
2023-04-04T04:02:39.702Z,102543.84
2023-04-04T04:05:09.219Z,102545.63
2023-04-04T04:07:36.273Z,102545.59
2023-04-04T04:10:05.366Z,102545.56
2023-04-04T04:12:32.946Z,102541.16
2023-04-04T04:14:59.862Z,102543.81
2023-04-04T04:17:28.518Z,102539.38
2023-04-04T04:19:55.453Z,102540.22
2023-04-04T04:22:23.236Z,102542.00
2023-04-04T04:24:50.141Z,102542.91
2023-04-04T04:27:16.985Z,102547.28
2023-04-04T04:29:43.870Z,102544.66
2023-04-04T04:32:10.939Z,102545.50
2023-04-04T04:34:42.937Z,102547.28
2023-04-04T04:37:09.793Z,102544.59
2023-04-04T04:39:47.499Z,102545.50
2023-04-04T04:42:27.481Z,102541.94
2023-04-04T04:44:57.419Z,102547.22
2023-04-04T04:47:24.989Z,102550.75
2023-04-04T04:49:52.456Z,102552.50
2023-04-04T04:52:26.345Z,102561.38
2023-04-04T04:54:55.884Z,102548.09
2023-04-04T04:57:23.609Z,102556.06
2023-04-04T04:59:51.292Z,102564.88
2023-04-04T05:02:19.098Z,102565.78
2023-04-04T05:04:47.179Z,102562.25
2023-04-04T05:07:15.744Z,102559.59
2023-04-04T05:09:45.221Z,102557.81
2023-04-04T05:12:13.198Z,102563.13
2023-04-04T05:14:44.913Z,102564.00
2023-04-04T05:17:12.002Z,102571.06
2023-04-04T05:19:40.105Z,102564.88
2023-04-04T05:22:08.117Z,102565.72
2023-04-04T05:24:46.250Z,102568.38
2023-04-04T05:27:16.620Z,102569.28
2023-04-04T05:29:49.623Z,102560.44
2023-04-04T05:32:16.494Z,102571.09
2023-04-04T05:34:49.984Z,102577.28
2023-04-04T05:37:19.771Z,102574.66
2023-04-04T05:39:49.150Z,102579.13
2023-04-04T05:42:17.082Z,102576.53
2023-04-04T05:44:49.352Z,102580.97
2023-04-04T05:47:17.429Z,102579.28
2023-04-04T05:49:46.833Z,102590.88
2023-04-04T05:52:13.746Z,102589.13
2023-04-04T05:54:41.264Z,102585.59
2023-04-04T05:57:15.548Z,102582.03
2023-04-04T05:59:47.314Z,102580.28
2023-04-04T06:02:16.241Z,102587.41
2023-04-04T06:04:48.818Z,102580.28
2023-04-04T06:07:20.792Z,102580.28
2023-04-04T06:09:47.630Z,102588.25
2023-04-04T06:12:14.638Z,102590.03
2023-04-04T06:14:41.995Z,102594.47
2023-04-04T06:17:09.984Z,102599.78
2023-04-04T06:19:39.711Z,102598.88
2023-04-04T06:22:06.546Z,102599.75
2023-04-04T06:24:37.522Z,102597.91
2023-04-04T06:27:05.250Z,102599.53
2023-04-04T06:29:33.446Z,102594.97
2023-04-04T06:32:01.457Z,102596.59
2023-04-04T06:34:38.466Z,102600.19
2023-04-04T06:37:06.059Z,102598.41
2023-04-04T06:39:40.586Z,102605.53
2023-04-04T06:42:12.729Z,102606.25
2023-04-04T06:44:46.430Z,102609.47
2023-04-04T06:47:13.873Z,102608.88
2023-04-04T06:49:40.724Z,102607.47
2023-04-04T06:52:07.684Z,102608.88
2023-04-04T06:54:35.885Z,102614.47
2023-04-04T06:57:03.018Z,102611.03
2023-04-04T06:59:29.964Z,102612.31
2023-04-04T07:01:57.918Z,102623.31
2023-04-04T07:04:26.032Z,102619.78
2023-04-04T07:06:52.924Z,102624.66
2023-04-04T07:09:28.868Z,102617.47
2023-04-04T07:11:56.861Z,102629.00
2023-04-04T07:14:25.463Z,102633.06
2023-04-04T07:16:53.285Z,102621.19
2023-04-04T07:19:20.464Z,102623.66
2023-04-04T07:21:47.336Z,102622.22
2023-04-04T07:24:14.267Z,102612.56
2023-04-04T07:26:41.323Z,102619.00
2023-04-04T07:29:08.218Z,102618.75
2023-04-04T07:31:35.195Z,102621.09
2023-04-04T07:34:02.188Z,102619.03
2023-04-04T07:36:29.342Z,102618.47
2023-04-04T07:38:56.446Z,102608.81
2023-04-04T07:41:23.393Z,102616.69
2023-04-04T07:43:50.210Z,102610.38
2023-04-04T07:46:17.927Z,102615.69
2023-04-04T07:48:44.882Z,102620.56
2023-04-04T07:51:11.800Z,102623.13
2023-04-04T07:53:40.087Z,102619.94
2023-04-04T07:56:07.006Z,102618.06
2023-04-04T07:58:34.788Z,102618.84
2023-04-04T08:01:04.583Z,102614.47
2023-04-04T08:03:31.936Z,102612.34
2023-04-04T08:05:59.050Z,102603.22
2023-04-04T08:08:26.053Z,102604.81
2023-04-04T08:10:52.970Z,102618.53
2023-04-04T08:13:19.782Z,102621.19
2023-04-04T08:15:47.123Z,102615.53
2023-04-04T08:18:14.353Z,102621.38
2023-04-04T08:20:41.995Z,102612.94
2023-04-04T08:23:10.018Z,102616.16
2023-04-04T08:25:36.959Z,102612.97
2023-04-04T08:28:06.498Z,102618.63
2023-04-04T08:30:33.348Z,102605.44
2023-04-04T08:33:00.557Z,102617.13
2023-04-04T08:35:27.483Z,102606.63
2023-04-04T08:37:54.429Z,102607.75
2023-04-04T08:40:21.350Z,102603.34
2023-04-04T08:42:51.557Z,102599.81
2023-04-04T08:45:20.463Z,102605.25
2023-04-04T08:47:52.075Z,102596.44
2023-04-04T08:50:19.871Z,102601.75
2023-04-04T08:52:47.213Z,102596.34
2023-04-04T08:55:15.504Z,102595.44
2023-04-04T08:57:43.414Z,102599.81
2023-04-04T09:00:11.062Z,102597.06
2023-04-04T09:02:42.203Z,102598.84
2023-04-04T09:05:10.896Z,102597.88
2023-04-04T09:07:39.841Z,102604.94
2023-04-04T09:10:11.731Z,102606.72
2023-04-04T09:12:44.276Z,102606.53
2023-04-04T09:15:11.826Z,102611.75
2023-04-04T09:17:38.672Z,102602.63
2023-04-04T09:20:40.680Z,102594.22
2023-04-04T09:23:28.304Z,102594.09
2023-04-04T09:26:03.788Z,102596.66
2023-04-04T09:28:33.144Z,102588.44
2023-04-04T09:31:04.892Z,102594.44
2023-04-04T09:33:33.905Z,102586.16
2023-04-04T09:36:12.758Z,102600.16
2023-04-04T09:38:45.451Z,102589.97
2023-04-04T09:41:18.021Z,102581.59
2023-04-04T09:43:45.654Z,102583.97
2023-04-04T09:46:12.914Z,102586.38
2023-04-04T09:48:40.196Z,102583.59
2023-04-04T09:51:12.546Z,102585.78
2023-04-04T09:53:42.176Z,102582.41
2023-04-04T09:56:09.754Z,102577.53
2023-04-04T09:58:46.294Z,102580.31
2023-04-04T10:01:20.089Z,102585.66
2023-04-04T10:03:54.629Z,102586.22
2023-04-04T10:06:23.327Z,102582.38
2023-04-04T10:08:50.501Z,102587.06
2023-04-04T10:11:36.688Z,102580.38
2023-04-04T10:14:06.846Z,102587.94
2023-04-04T10:16:37.192Z,102577.72
2023-04-04T10:19:09.643Z,102584.22
2023-04-04T10:21:42.692Z,102569.91
2023-04-04T10:24:10.077Z,102575.78
2023-04-04T10:26:37.705Z,102578.53
2023-04-04T10:29:05.810Z,102567.06
2023-04-04T10:31:38.362Z,102568.31
2023-04-04T10:34:20.377Z,102563.56
2023-04-04T10:36:58.291Z,102568.19
2023-04-04T10:39:27.713Z,102564.13
2023-04-04T10:41:57.470Z,102558.72
2023-04-04T10:44:37.880Z,102573.19
2023-04-04T10:47:26.848Z,102567.41
2023-04-04T10:49:56.148Z,102554.31
2023-04-04T10:52:27.585Z,102551.06
2023-04-04T10:55:00.340Z,102547.56
2023-04-04T10:57:28.816Z,102547.16
2023-04-04T11:00:10.802Z,102546.09
2023-04-04T11:02:55.784Z,102538.47
2023-04-04T11:05:43.572Z,102537.44
2023-04-04T11:08:17.000Z,102539.00
2023-04-04T11:10:47.348Z,102526.81
2023-04-04T11:13:23.444Z,102528.69
2023-04-04T11:16:10.271Z,102524.72
2023-04-04T11:18:43.267Z,102529.28
2023-04-04T11:21:19.958Z,102530.56
2023-04-04T11:23:50.108Z,102518.09
2023-04-04T11:26:34.332Z,102513.81
2023-04-04T11:29:09.619Z,102513.59
2023-04-04T11:31:45.534Z,102518.63
2023-04-04T11:34:14.960Z,102516.88
2023-04-04T11:36:43.343Z,102511.44
2023-04-04T11:39:22.820Z,102511.41
2023-04-04T11:41:57.197Z,102507.06
2023-04-04T11:44:29.418Z,102503.13
2023-04-04T11:47:12.750Z,102508.03
2023-04-04T11:49:44.556Z,102503.09
2023-04-04T11:52:15.900Z,102498.25
2023-04-04T11:54:45.701Z,102500.41
2023-04-04T11:57:15.864Z,102496.78
2023-04-04T11:59:48.895Z,102492.16
2023-04-04T12:02:32.190Z,102500.28
2023-04-04T12:04:59.600Z,102487.19
2023-04-04T12:07:29.300Z,102493.94
2023-04-04T12:09:57.782Z,102483.09
2023-04-04T12:12:26.321Z,102490.63
2023-04-04T12:14:58.078Z,102482.38
2023-04-04T12:17:34.668Z,102480.31
2023-04-04T12:20:02.115Z,102470.66
2023-04-04T12:22:35.530Z,102473.06
2023-04-04T12:25:03.540Z,102468.28
2023-04-04T12:27:30.773Z,102464.28
2023-04-04T12:30:00.762Z,102458.22
2023-04-04T12:32:27.802Z,102459.25
2023-04-04T12:35:01.035Z,102459.44
2023-04-04T12:37:31.227Z,102456.63
2023-04-04T12:39:58.478Z,102455.59
2023-04-04T12:42:26.363Z,102445.69
2023-04-04T12:44:54.655Z,102439.16
2023-04-04T12:47:26.143Z,102440.50
2023-04-04T12:49:55.087Z,102438.72
2023-04-04T12:52:29.568Z,102431.00
2023-04-04T12:55:08.398Z,102437.13
2023-04-04T12:57:38.600Z,102432.22
2023-04-04T13:00:09.044Z,102419.41
2023-04-04T13:02:39.004Z,102423.31
2023-04-04T13:05:07.570Z,102410.66
2023-04-04T13:07:48.097Z,102408.13
2023-04-04T13:10:17.600Z,102410.31
2023-04-04T13:13:00.015Z,102403.88
2023-04-04T13:15:52.968Z,102400.78
2023-04-04T13:18:26.459Z,102392.50
2023-04-04T13:20:54.563Z,102400.31
2023-04-04T13:23:22.822Z,102386.66
2023-04-04T13:25:50.192Z,102392.34
2023-04-04T13:28:17.562Z,102385.41
2023-04-04T13:30:49.082Z,102378.81
2023-04-04T13:33:16.959Z,102381.53
2023-04-04T13:35:45.548Z,102372.38
2023-04-04T13:38:12.852Z,102366.28
2023-04-04T13:40:39.889Z,102357.91
2023-04-04T13:43:07.088Z,102357.41
2023-04-04T13:45:35.505Z,102358.03
2023-04-04T13:48:04.147Z,102355.31
2023-04-04T13:50:33.117Z,102361.34
2023-04-04T13:53:00.038Z,102347.91
2023-04-04T13:55:28.127Z,102355.13
2023-04-04T13:57:55.017Z,102348.50
2023-04-04T14:00:22.662Z,102356.34
2023-04-04T14:02:53.010Z,102342.03
2023-04-04T14:05:22.285Z,102345.59
2023-04-04T14:07:49.275Z,102335.44
2023-04-04T14:10:17.039Z,102331.78
2023-04-04T14:12:43.981Z,102337.44
2023-04-04T14:15:12.228Z,102331.06
2023-04-04T14:17:39.737Z,102321.84
2023-04-04T14:20:08.813Z,102324.94
2023-04-04T14:22:36.299Z,102321.13
2023-04-04T14:25:04.907Z,102321.13
2023-04-04T14:27:31.890Z,102315.28
2023-04-04T14:29:58.738Z,102317.44
2023-04-04T14:32:27.003Z,102308.19
2023-04-04T14:34:53.898Z,102313.69
2023-04-04T14:37:20.764Z,102308.38
2023-04-04T14:39:47.849Z,102299.88
2023-04-04T14:42:14.972Z,102303.41
2023-04-04T14:44:42.668Z,102299.31
2023-04-04T14:47:09.655Z,102290.78
2023-04-04T14:49:36.717Z,102288.78
2023-04-04T14:52:04.324Z,102299.56
2023-04-04T14:54:31.201Z,102297.28
2023-04-04T14:56:58.519Z,102293.47
2023-04-04T14:59:25.523Z,102289.84
2023-04-04T15:01:52.483Z,102288.63
2023-04-04T15:04:19.380Z,102289.41
2023-04-04T15:06:46.511Z,102285.50
2023-04-04T15:09:13.491Z,102273.91
2023-04-04T15:11:40.384Z,102274.88
2023-04-04T15:14:07.474Z,102269.13
2023-04-04T15:16:35.344Z,102264.75
2023-04-04T15:19:02.399Z,102264.31
2023-04-04T15:21:29.213Z,102267.84
2023-04-04T15:23:56.156Z,102268.94
2023-04-04T15:26:23.576Z,102268.38
2023-04-04T15:28:50.567Z,102272.63
2023-04-04T15:31:17.570Z,102265.97
2023-04-04T15:33:44.460Z,102267.69
2023-04-04T15:36:11.424Z,102263.63
2023-04-04T15:38:39.591Z,102254.88
2023-04-04T15:41:09.278Z,102264.22
2023-04-04T15:43:37.168Z,102255.38
2023-04-04T15:46:04.611Z,102251.88
2023-04-04T15:48:31.997Z,102256.81
2023-04-04T15:51:02.640Z,102246.09
2023-04-04T15:53:31.137Z,102242.66
2023-04-04T15:55:58.694Z,102251.34
2023-04-04T15:58:26.588Z,102242.81
2023-04-04T16:00:55.684Z,102237.38
2023-04-04T16:03:23.991Z,102234.66
2023-04-04T16:05:50.959Z,102227.31
2023-04-04T16:08:18.365Z,102226.69
2023-04-04T16:10:45.281Z,102217.00
2023-04-04T16:13:14.094Z,102221.94
2023-04-04T16:15:41.187Z,102210.97
2023-04-04T16:18:08.696Z,102210.22
2023-04-04T16:20:36.150Z,102211.28
2023-04-04T16:23:03.110Z,102205.16
2023-04-04T16:25:30.014Z,102212.72
2023-04-04T16:27:57.171Z,102209.09
2023-04-04T16:30:24.067Z,102209.72
2023-04-04T16:32:51.036Z,102203.28
2023-04-04T16:35:18.260Z,102208.25
2023-04-04T16:37:45.363Z,102210.47
2023-04-04T16:40:14.038Z,102195.53
2023-04-04T16:42:42.085Z,102191.78
2023-04-04T16:45:09.918Z,102197.72
2023-04-04T16:47:36.961Z,102189.88
2023-04-04T16:50:05.938Z,102194.25
2023-04-04T16:52:32.887Z,102197.13
2023-04-04T16:54:59.835Z,102193.69
2023-04-04T16:57:27.381Z,102193.34
2023-04-04T16:59:54.394Z,102196.09
2023-04-04T17:02:21.408Z,102191.00
2023-04-04T17:04:48.250Z,102183.69
2023-04-04T17:07:15.154Z,102184.66
2023-04-04T17:09:42.034Z,102179.44
2023-04-04T17:12:09.446Z,102179.31
2023-04-04T17:14:37.500Z,102183.44
2023-04-04T17:17:05.514Z,102187.47
2023-04-04T17:19:34.904Z,102184.13
2023-04-04T17:22:02.703Z,102192.19
2023-04-04T17:24:29.659Z,102185.63
2023-04-04T17:26:58.302Z,102182.56
2023-04-04T17:29:27.000Z,102175.66
2023-04-04T17:31:56.162Z,102176.25
2023-04-04T17:34:24.382Z,102173.31
2023-04-04T17:36:53.075Z,102165.63
2023-04-04T17:39:20.060Z,102168.75
2023-04-04T17:41:49.650Z,102162.94
2023-04-04T17:44:19.120Z,102165.00
2023-04-04T17:46:46.796Z,102176.09
2023-04-04T17:49:19.693Z,102176.28
2023-04-04T17:51:48.983Z,102180.06
2023-04-04T17:54:16.783Z,102168.66
2023-04-04T17:56:47.364Z,102174.34
2023-04-04T17:59:15.805Z,102171.09
2023-04-04T18:01:43.333Z,102173.25
2023-04-04T18:04:10.448Z,102173.38
2023-04-04T18:06:40.153Z,102179.03
2023-04-04T18:09:09.213Z,102175.59
2023-04-04T18:11:37.031Z,102169.59
2023-04-04T18:14:09.963Z,102171.75
2023-04-04T18:16:40.380Z,102172.88
2023-04-04T18:19:09.578Z,102165.94
2023-04-04T18:21:37.736Z,102169.66
2023-04-04T18:24:07.510Z,102168.84
2023-04-04T18:26:34.392Z,102169.13
2023-04-04T18:29:01.208Z,102168.44
2023-04-04T18:31:28.581Z,102166.81
2023-04-04T18:33:56.744Z,102169.66
2023-04-04T18:36:23.750Z,102170.69
2023-04-04T18:38:50.586Z,102169.06
2023-04-04T18:41:17.525Z,102167.44
2023-04-04T18:43:44.528Z,102172.13
2023-04-04T18:46:11.474Z,102169.53
2023-04-04T18:48:39.473Z,102179.56
2023-04-04T18:51:06.591Z,102177.13
2023-04-04T18:53:33.446Z,102186.19
2023-04-04T18:56:00.300Z,102173.84
2023-04-04T18:58:27.191Z,102177.59
2023-04-04T19:00:55.886Z,102188.47
2023-04-04T19:03:23.263Z,102184.97
2023-04-04T19:05:50.889Z,102190.50
2023-04-04T19:08:19.186Z,102185.22
2023-04-04T19:10:50.751Z,102179.94
2023-04-04T19:13:18.445Z,102185.47
2023-04-04T19:15:45.716Z,102196.22
2023-04-04T19:18:12.628Z,102190.13
2023-04-04T19:20:42.083Z,102196.44
2023-04-04T19:23:10.254Z,102192.06
2023-04-04T19:25:37.018Z,102196.56
2023-04-04T19:28:04.463Z,102194.69
2023-04-04T19:30:49.082Z,102197.38
2023-04-04T19:33:23.043Z,102198.31
2023-04-04T19:36:09.691Z,102196.56
2023-04-04T19:38:42.749Z,102194.81
2023-04-04T19:41:32.587Z,102193.94
2023-04-04T19:44:00.247Z,102196.69
2023-04-04T19:46:31.716Z,102198.50
2023-04-04T19:49:03.146Z,102196.78
2023-04-04T19:51:29.954Z,102198.66
2023-04-04T19:53:59.203Z,102197.78
2023-04-04T19:56:28.399Z,102199.59
2023-04-04T19:58:59.462Z,102195.16
2023-04-04T20:01:34.330Z,102194.31
2023-04-04T20:04:09.954Z,102198.06
2023-04-04T20:06:38.798Z,102195.53
2023-04-04T20:09:25.691Z,102194.81
2023-04-04T20:11:52.492Z,102198.59
2023-04-04T20:14:22.121Z,102190.66
2023-04-04T20:16:52.010Z,102191.59
2023-04-04T20:19:20.884Z,102182.66
2023-04-04T20:21:48.833Z,102183.56
2023-04-04T20:24:17.718Z,102187.25
2023-04-04T20:26:59.815Z,102181.97
2023-04-04T20:29:33.733Z,102186.69
2023-04-04T20:32:08.427Z,102189.66
2023-04-04T20:34:49.816Z,102187.19
2023-04-04T20:37:28.803Z,102179.28
2023-04-04T20:40:04.582Z,102180.25
2023-04-04T20:42:39.691Z,102169.66
2023-04-04T20:45:12.324Z,102181.41
2023-04-04T20:47:51.129Z,102186.00
2023-04-04T20:50:18.403Z,102186.09
2023-04-04T20:53:03.603Z,102177.25
2023-04-04T20:55:34.086Z,102172.06
2023-04-04T20:58:30.567Z,102180.25
2023-04-04T21:01:00.146Z,102186.66
2023-04-04T21:03:26.969Z,102182.34
2023-04-04T21:06:08.510Z,102177.09
2023-04-04T21:08:47.045Z,102175.41
2023-04-04T21:11:29.057Z,102180.88
2023-04-04T21:13:57.335Z,102181.00
2023-04-04T21:16:27.411Z,102181.16
2023-04-04T21:18:59.719Z,102179.50
2023-04-04T21:21:27.640Z,102179.59
2023-04-04T21:23:58.691Z,102173.56
2023-04-04T21:26:34.370Z,102172.78
2023-04-04T21:29:22.527Z,102172.97
2023-04-04T21:31:52.906Z,102174.03
2023-04-04T21:34:26.563Z,102170.56
2023-04-04T21:37:01.359Z,102179.59
2023-04-04T21:39:30.151Z,102180.66
2023-04-04T21:41:59.978Z,102175.47
2023-04-04T21:44:27.257Z,102169.44
2023-04-04T21:46:55.281Z,102158.94
2023-04-04T21:49:22.931Z,102167.16
2023-04-04T21:51:51.019Z,102165.53
2023-04-04T21:54:18.226Z,102163.00
2023-04-04T21:56:46.283Z,102166.63
2023-04-04T21:59:13.177Z,102157.78
2023-04-04T22:01:40.800Z,102151.63
2023-04-04T22:04:07.904Z,102158.00
2023-04-04T22:06:34.907Z,102153.69
2023-04-04T22:09:03.343Z,102157.44
2023-04-04T22:11:30.589Z,102149.50
2023-04-04T22:14:04.162Z,102145.06
2023-04-04T22:16:32.551Z,102141.56
2023-04-04T22:19:01.367Z,102142.47
2023-04-04T22:21:28.882Z,102136.28
2023-04-04T22:24:02.437Z,102139.97
2023-04-04T22:26:32.337Z,102127.56
2023-04-04T22:29:05.387Z,102133.09
2023-04-04T22:31:34.739Z,102129.75
2023-04-04T22:34:03.302Z,102139.03
2023-04-04T22:36:30.731Z,102130.41
2023-04-04T22:38:58.108Z,102127.06
2023-04-04T22:41:30.098Z,102123.63
2023-04-04T22:43:58.084Z,102116.66
2023-04-04T22:46:26.737Z,102122.19
2023-04-04T22:49:06.126Z,102124.09
2023-04-04T22:51:43.984Z,102122.47
2023-04-04T22:54:16.289Z,102127.13
2023-04-04T22:56:43.589Z,102121.03
2023-04-04T22:59:10.848Z,102118.44
2023-04-04T23:01:38.285Z,102115.91
2023-04-04T23:04:05.355Z,102109.66
2023-04-04T23:06:32.536Z,102110.66
2023-04-04T23:08:59.394Z,102111.63
2023-04-04T23:11:27.241Z,102117.91
2023-04-04T23:13:54.328Z,102116.25
2023-04-04T23:16:23.534Z,102112.78
2023-04-04T23:18:51.410Z,102111.97
2023-04-04T23:21:18.284Z,102109.41
2023-04-04T23:23:45.055Z,102103.25
2023-04-04T23:26:11.872Z,102107.84
2023-04-04T23:28:38.662Z,102099.88
2023-04-04T23:31:06.415Z,102107.94
2023-04-04T23:33:33.249Z,102100.88
2023-04-04T23:36:00.094Z,102100.03
2023-04-04T23:38:27.023Z,102099.25
2023-04-04T23:40:54.269Z,102096.72
2023-04-04T23:43:24.192Z,102090.59
2023-04-04T23:45:54.263Z,102085.41
2023-04-04T23:48:21.524Z,102087.28
2023-04-04T23:50:50.104Z,102080.25
2023-04-04T23:53:16.922Z,102082.16
2023-04-04T23:55:43.736Z,102087.66
2023-04-04T23:58:10.612Z,102090.47
